Terminal Aerodrome Forecast
Issued by NWS

Home | Current Version | Previous Version | Text Only | Print | Product List | Glossary On
Versions: 1 2 3 4 5 6 7 8 9 10 11 12 13 14 15 16
000
FTUS46 KLOX 020533
TAFPMD
TAF
KPMD 020533Z 0206/0306 28010KT P6SM FEW250
     FM020800 20006KT P6SM SKC
     FM021400 VRB05KT P6SM SCT250
     FM022300 24012G22KT P6SM SCT250
     FM030300 25012KT P6SM SCT250=

USA.gov is the U.S. government's official web portal to all federal, state and local government web resources and services.